sensor_id;sensor_type;location;lat;lon;timestamp;pressure;altitude;pressure_sealevel;temperature
64458;BMP280;58438;51.200;7.252;2024-01-06T00:00:28;95886.03;;;5.15
64458;BMP280;58438;51.200;7.252;2024-01-06T00:03:16;95886.78;;;5.15
64458;BMP280;58438;51.200;7.252;2024-01-06T00:06:03;95886.28;;;5.17
64458;BMP280;58438;51.200;7.252;2024-01-06T00:08:50;95889.75;;;5.17
64458;BMP280;58438;51.200;7.252;2024-01-06T00:11:40;95889.75;;;5.17
64458;BMP280;58438;51.200;7.252;2024-01-06T00:14:28;95892.44;;;5.17
64458;BMP280;58438;51.200;7.252;2024-01-06T00:17:16;95895.13;;;5.17
64458;BMP280;58438;51.200;7.252;2024-01-06T00:20:04;95895.84;;;5.18
64458;BMP280;58438;51.200;7.252;2024-01-06T00:22:52;95899.28;;;5.18
64458;BMP280;58438;51.200;7.252;2024-01-06T00:25:39;95900.75;;;5.19
64458;BMP280;58438;51.200;7.252;2024-01-06T00:28:26;95901.50;;;5.20
64458;BMP280;58438;51.200;7.252;2024-01-06T00:31:13;95904.94;;;5.20
64458;BMP280;58438;51.200;7.252;2024-01-06T00:34:02;95907.63;;;5.20
64458;BMP280;58438;51.200;7.252;2024-01-06T00:36:49;95910.31;;;5.20
64458;BMP280;58438;51.200;7.252;2024-01-06T00:39:36;95913.03;;;5.20
64458;BMP280;58438;51.200;7.252;2024-01-06T00:42:23;95913.78;;;5.21
64458;BMP280;58438;51.200;7.252;2024-01-06T00:45:10;95917.94;;;5.22
64458;BMP280;58438;51.200;7.252;2024-01-06T00:47:57;95918.72;;;5.22
64458;BMP280;58438;51.200;7.252;2024-01-06T00:50:46;95920.19;;;5.23
64458;BMP280;58438;51.200;7.252;2024-01-06T00:53:33;95920.91;;;5.24
64458;BMP280;58438;51.200;7.252;2024-01-06T00:56:20;95923.13;;;5.25
64458;BMP280;58438;51.200;7.252;2024-01-06T00:59:07;95924.63;;;5.26
64458;BMP280;58438;51.200;7.252;2024-01-06T01:01:54;95925.38;;;5.27
64458;BMP280;58438;51.200;7.252;2024-01-06T01:04:42;95926.84;;;5.28
64458;BMP280;58438;51.200;7.252;2024-01-06T01:07:33;95926.34;;;5.29
64458;BMP280;58438;51.200;7.252;2024-01-06T01:10:23;95929.81;;;5.30
64458;BMP280;58438;51.200;7.252;2024-01-06T01:13:13;95933.25;;;5.30
64458;BMP280;58438;51.200;7.252;2024-01-06T01:16:03;95936.66;;;5.31
64458;BMP280;58438;51.200;7.252;2024-01-06T01:18:53;95936.66;;;5.31
64458;BMP280;58438;51.200;7.252;2024-01-06T01:21:43;95939.38;;;5.31
64458;BMP280;58438;51.200;7.252;2024-01-06T01:24:35;95941.59;;;5.32
64458;BMP280;58438;51.200;7.252;2024-01-06T01:27:25;95945.03;;;5.33
64458;BMP280;58438;51.200;7.252;2024-01-06T01:30:15;95946.50;;;5.34
64458;BMP280;58438;51.200;7.252;2024-01-06T01:33:04;95949.19;;;5.34
64458;BMP280;58438;51.200;7.252;2024-01-06T01:35:54;95949.91;;;5.34
64458;BMP280;58438;51.200;7.252;2024-01-06T01:38:48;95952.88;;;5.36
64458;BMP280;58438;51.200;7.252;2024-01-06T01:41:39;95956.31;;;5.37
64458;BMP280;58438;51.200;7.252;2024-01-06T01:44:29;95960.50;;;5.38
64458;BMP280;58438;51.200;7.252;2024-01-06T01:47:18;95963.94;;;5.38
64458;BMP280;58438;51.200;7.252;2024-01-06T01:50:09;95965.44;;;5.39
64458;BMP280;58438;51.200;7.252;2024-01-06T01:52:59;95966.16;;;5.40
64458;BMP280;58438;51.200;7.252;2024-01-06T01:55:50;95968.13;;;5.39
64458;BMP280;58438;51.200;7.252;2024-01-06T01:58:41;95970.81;;;5.39
64458;BMP280;58438;51.200;7.252;2024-01-06T02:01:31;95970.81;;;5.39
64458;BMP280;58438;51.200;7.252;2024-01-06T02:04:21;95973.53;;;5.39
64458;BMP280;58438;51.200;7.252;2024-01-06T02:07:11;95973.53;;;5.39
64458;BMP280;58438;51.200;7.252;2024-01-06T02:10:01;95975.47;;;5.39
64458;BMP280;58438;51.200;7.252;2024-01-06T02:12:51;95975.94;;;5.37
64458;BMP280;58438;51.200;7.252;2024-01-06T02:15:42;95977.16;;;5.36
64458;BMP280;58438;51.200;7.252;2024-01-06T02:18:32;95977.91;;;5.37
64458;BMP280;58438;51.200;7.252;2024-01-06T02:21:23;95979.84;;;5.36
64458;BMP280;58438;51.200;7.252;2024-01-06T02:24:14;95982.56;;;5.36
64458;BMP280;58438;51.200;7.252;2024-01-06T02:27:04;95984.03;;;5.37
64458;BMP280;58438;51.200;7.252;2024-01-06T02:29:54;95985.53;;;5.38
64458;BMP280;58438;51.200;7.252;2024-01-06T02:32:43;95988.97;;;5.39
64458;BMP280;58438;51.200;7.252;2024-01-06T02:35:30;95990.44;;;5.40
64458;BMP280;58438;51.200;7.252;2024-01-06T02:38:17;95990.44;;;5.40
64458;BMP280;58438;51.200;7.252;2024-01-06T02:41:05;95993.13;;;5.40
64458;BMP280;58438;51.200;7.252;2024-01-06T02:43:53;95993.88;;;5.40
64458;BMP280;58438;51.200;7.252;2024-01-06T02:46:41;95997.31;;;5.41
64458;BMP280;58438;51.200;7.252;2024-01-06T02:49:28;95996.13;;;5.42
64458;BMP280;58438;51.200;7.252;2024-01-06T02:52:16;95998.81;;;5.42
64458;BMP280;58438;51.200;7.252;2024-01-06T02:55:03;96002.25;;;5.42
64458;BMP280;58438;51.200;7.252;2024-01-06T02:57:52;96004.94;;;5.42
64458;BMP280;58438;51.200;7.252;2024-01-06T03:00:39;96004.22;;;5.42
64458;BMP280;58438;51.200;7.252;2024-01-06T03:03:27;96008.38;;;5.43
64458;BMP280;58438;51.200;7.252;2024-01-06T03:06:14;96010.34;;;5.42
64458;BMP280;58438;51.200;7.252;2024-01-06T03:09:02;96013.50;;;5.41
64458;BMP280;58438;51.200;7.252;2024-01-06T03:11:49;96014.72;;;5.40
64458;BMP280;58438;51.200;7.252;2024-01-06T03:14:37;96015.94;;;5.39
64458;BMP280;58438;51.200;7.252;2024-01-06T03:17:25;96020.59;;;5.38
64458;BMP280;58438;51.200;7.252;2024-01-06T03:20:15;96021.78;;;5.37
64458;BMP280;58438;51.200;7.252;2024-01-06T03:23:02;96024.50;;;5.37
64458;BMP280;58438;51.200;7.252;2024-01-06T03:25:49;96027.94;;;5.38
64458;BMP280;58438;51.200;7.252;2024-01-06T03:28:37;96029.88;;;5.37
64458;BMP280;58438;51.200;7.252;2024-01-06T03:31:25;96032.59;;;5.37
64458;BMP280;58438;51.200;7.252;2024-01-06T03:34:13;96035.28;;;5.37
64458;BMP280;58438;51.200;7.252;2024-01-06T03:37:01;96035.78;;;5.36
64458;BMP280;58438;51.200;7.252;2024-01-06T03:39:48;96037.72;;;5.35
64458;BMP280;58438;51.200;7.252;2024-01-06T03:42:36;96040.41;;;5.35
64458;BMP280;58438;51.200;7.252;2024-01-06T03:45:23;96040.41;;;5.35
64458;BMP280;58438;51.200;7.252;2024-01-06T03:48:12;96043.13;;;5.35
64458;BMP280;58438;51.200;7.252;2024-01-06T03:50:59;96045.09;;;5.35
64458;BMP280;58438;51.200;7.252;2024-01-06T03:53:47;96045.81;;;5.35
64458;BMP280;58438;51.200;7.252;2024-01-06T03:56:34;96048.50;;;5.35
64458;BMP280;58438;51.200;7.252;2024-01-06T03:59:21;96051.97;;;5.36
64458;BMP280;58438;51.200;7.252;2024-01-06T04:02:09;96051.97;;;5.36
64458;BMP280;58438;51.200;7.252;2024-01-06T04:04:57;96051.97;;;5.36
64458;BMP280;58438;51.200;7.252;2024-01-06T04:07:44;96051.97;;;5.36
64458;BMP280;58438;51.200;7.252;2024-01-06T04:10:32;96055.38;;;5.36
64458;BMP280;58438;51.200;7.252;2024-01-06T04:13:19;96054.66;;;5.36
64458;BMP280;58438;51.200;7.252;2024-01-06T04:16:06;96054.66;;;5.36
64458;BMP280;58438;51.200;7.252;2024-01-06T04:18:53;96058.09;;;5.36
64458;BMP280;58438;51.200;7.252;2024-01-06T04:21:42;96058.09;;;5.36
64458;BMP280;58438;51.200;7.252;2024-01-06T04:24:29;96061.53;;;5.37
64458;BMP280;58438;51.200;7.252;2024-01-06T04:27:16;96064.22;;;5.37
64458;BMP280;58438;51.200;7.252;2024-01-06T04:30:04;96064.97;;;5.37
64458;BMP280;58438;51.200;7.252;2024-01-06T04:32:51;96066.47;;;5.38
64458;BMP280;58438;51.200;7.252;2024-01-06T04:35:39;96067.94;;;5.39
64458;BMP280;58438;51.200;7.252;2024-01-06T04:38:28;96070.66;;;5.39
64458;BMP280;58438;51.200;7.252;2024-01-06T04:41:15;96072.59;;;5.39
64458;BMP280;58438;51.200;7.252;2024-01-06T04:44:02;96075.28;;;5.39
64458;BMP280;58438;51.200;7.252;2024-01-06T04:46:49;96076.50;;;5.38
64458;BMP280;58438;51.200;7.252;2024-01-06T04:49:37;96077.72;;;5.37
64458;BMP280;58438;51.200;7.252;2024-01-06T04:52:24;96079.66;;;5.36
64458;BMP280;58438;51.200;7.252;2024-01-06T04:55:13;96080.88;;;5.35
64458;BMP280;58438;51.200;7.252;2024-01-06T04:58:00;96081.63;;;5.36
64458;BMP280;58438;51.200;7.252;2024-01-06T05:00:47;96083.59;;;5.35
64458;BMP280;58438;51.200;7.252;2024-01-06T05:03:36;96086.28;;;5.35
64458;BMP280;58438;51.200;7.252;2024-01-06T05:06:23;96085.56;;;5.35
64458;BMP280;58438;51.200;7.252;2024-01-06T05:09:10;96086.28;;;5.35
64458;BMP280;58438;51.200;7.252;2024-01-06T05:11:59;96088.97;;;5.35
64458;BMP280;58438;51.200;7.252;2024-01-06T05:14:47;96092.16;;;5.34
64458;BMP280;58438;51.200;7.252;2024-01-06T05:17:33;96093.38;;;5.33
64458;BMP280;58438;51.200;7.252;2024-01-06T05:20:20;96093.88;;;5.31
64458;BMP280;58438;51.200;7.252;2024-01-06T05:23:08;96094.34;;;5.30
64458;BMP280;58438;51.200;7.252;2024-01-06T05:25:54;96096.03;;;5.27
64458;BMP280;58438;51.200;7.252;2024-01-06T05:28:43;96099.19;;;5.26
64458;BMP280;58438;51.200;7.252;2024-01-06T05:31:30;96103.09;;;5.25
64458;BMP280;58438;51.200;7.252;2024-01-06T05:34:17;96106.28;;;5.23
64458;BMP280;58438;51.200;7.252;2024-01-06T05:37:04;96108.69;;;5.21
64458;BMP280;58438;51.200;7.252;2024-01-06T05:39:52;96111.13;;;5.19
64458;BMP280;58438;51.200;7.252;2024-01-06T05:42:40;96112.81;;;5.17
64458;BMP280;58438;51.200;7.252;2024-01-06T05:45:29;96115.72;;;5.13
64458;BMP280;58438;51.200;7.252;2024-01-06T05:48:16;96121.31;;;5.10
64458;BMP280;58438;51.200;7.252;2024-01-06T05:51:04;96123.75;;;5.08
64458;BMP280;58438;51.200;7.252;2024-01-06T05:53:52;96129.59;;;5.06
64458;BMP280;58438;51.200;7.252;2024-01-06T05:56:40;96134.72;;;5.04
64458;BMP280;58438;51.200;7.252;2024-01-06T05:59:27;96137.88;;;5.03
64458;BMP280;58438;51.200;7.252;2024-01-06T06:02:16;96143.00;;;5.01
64458;BMP280;58438;51.200;7.252;2024-01-06T06:05:03;96149.66;;;5.00
64458;BMP280;58438;51.200;7.252;2024-01-06T06:07:50;96151.59;;;5.00
64458;BMP280;58438;51.200;7.252;2024-01-06T06:10:38;96155.97;;;4.97
64458;BMP280;58438;51.200;7.252;2024-01-06T06:13:38;96162.59;;;4.96
64458;BMP280;58438;51.200;7.252;2024-01-06T06:16:26;96166.47;;;4.95
64458;BMP280;58438;51.200;7.252;2024-01-06T06:19:14;96169.66;;;4.94
64458;BMP280;58438;51.200;7.252;2024-01-06T06:22:03;96174.75;;;4.92
64458;BMP280;58438;51.200;7.252;2024-01-06T06:24:51;96179.88;;;4.90
64458;BMP280;58438;51.200;7.252;2024-01-06T06:27:38;96185.00;;;4.88
64458;BMP280;58438;51.200;7.252;2024-01-06T06:30:25;96190.84;;;4.86
64458;BMP280;58438;51.200;7.252;2024-01-06T06:33:13;96196.00;;;4.84
64458;BMP280;58438;51.200;7.252;2024-01-06T06:36:02;96201.84;;;4.83
64458;BMP280;58438;51.200;7.252;2024-01-06T06:38:49;96205.75;;;4.82
64458;BMP280;58438;51.200;7.252;2024-01-06T06:41:36;96213.13;;;4.81
64458;BMP280;58438;51.200;7.252;2024-01-06T06:44:23;96218.97;;;4.80
64458;BMP280;58438;51.200;7.252;2024-01-06T06:47:10;96225.56;;;4.79
64458;BMP280;58438;51.200;7.252;2024-01-06T06:49:57;96228.72;;;4.77
64458;BMP280;58438;51.200;7.252;2024-01-06T06:52:46;96235.31;;;4.76
64458;BMP280;58438;51.200;7.252;2024-01-06T06:55:34;96239.94;;;4.76
64458;BMP280;58438;51.200;7.252;2024-01-06T06:58:23;96245.06;;;4.74
64458;BMP280;58438;51.200;7.252;2024-01-06T07:01:10;96250.91;;;4.72
64458;BMP280;58438;51.200;7.252;2024-01-06T07:03:58;96256.78;;;4.71
64458;BMP280;58438;51.200;7.252;2024-01-06T07:06:45;96261.88;;;4.69
64458;BMP280;58438;51.200;7.252;2024-01-06T07:09:34;96264.31;;;4.67
64458;BMP280;58438;51.200;7.252;2024-01-06T07:12:21;96270.19;;;4.65
64458;BMP280;58438;51.200;7.252;2024-01-06T07:15:08;96275.28;;;4.63
64458;BMP280;58438;51.200;7.252;2024-01-06T07:17:57;96279.19;;;4.62
64458;BMP280;58438;51.200;7.252;2024-01-06T07:20:45;96285.78;;;4.61
64458;BMP280;58438;51.200;7.252;2024-01-06T07:23:32;96291.63;;;4.60
64458;BMP280;58438;51.200;7.252;2024-01-06T07:26:21;96294.06;;;4.58
64458;BMP280;58438;51.200;7.252;2024-01-06T07:29:08;96299.19;;;4.56
64458;BMP280;58438;51.200;7.252;2024-01-06T07:31:55;96303.53;;;4.53
64458;BMP280;58438;51.200;7.252;2024-01-06T07:34:43;96305.19;;;4.51
64458;BMP280;58438;51.200;7.252;2024-01-06T07:37:30;96308.84;;;4.48
64458;BMP280;58438;51.200;7.252;2024-01-06T07:40:17;96312.00;;;4.46
64458;BMP280;58438;51.200;7.252;2024-01-06T07:43:05;96316.34;;;4.44
64458;BMP280;58438;51.200;7.252;2024-01-06T07:45:53;96322.19;;;4.42
64458;BMP280;58438;51.200;7.252;2024-01-06T07:48:40;96326.09;;;4.41
64458;BMP280;58438;51.200;7.252;2024-01-06T07:51:27;96327.78;;;4.39
64458;BMP280;58438;51.200;7.252;2024-01-06T07:54:15;96332.13;;;4.36
64458;BMP280;58438;51.200;7.252;2024-01-06T07:57:02;96335.00;;;4.33
64458;BMP280;58438;51.200;7.252;2024-01-06T07:59:50;96338.16;;;4.31
64458;BMP280;58438;51.200;7.252;2024-01-06T08:02:37;96340.09;;;4.31
64458;BMP280;58438;51.200;7.252;2024-01-06T08:05:24;96344.00;;;4.30
64458;BMP280;58438;51.200;7.252;2024-01-06T08:08:12;96348.66;;;4.29
64458;BMP280;58438;51.200;7.252;2024-01-06T08:11:02;96353.31;;;4.29
64458;BMP280;58438;51.200;7.252;2024-01-06T08:13:50;96357.97;;;4.28
64458;BMP280;58438;51.200;7.252;2024-01-06T08:16:38;96361.84;;;4.27
64458;BMP280;58438;51.200;7.252;2024-01-06T08:19:25;96366.47;;;4.27
64458;BMP280;58438;51.200;7.252;2024-01-06T08:22:14;96371.13;;;4.26
64458;BMP280;58438;51.200;7.252;2024-01-06T08:25:01;96378.47;;;4.26
64458;BMP280;58438;51.200;7.252;2024-01-06T08:27:49;96380.88;;;4.24
64458;BMP280;58438;51.200;7.252;2024-01-06T08:30:36;96387.44;;;4.23
64458;BMP280;58438;51.200;7.252;2024-01-06T08:33:25;96392.09;;;4.22
64458;BMP280;58438;51.200;7.252;2024-01-06T08:36:12;96395.25;;;4.21
64458;BMP280;58438;51.200;7.252;2024-01-06T08:38:59;96401.06;;;4.19
64458;BMP280;58438;51.200;7.252;2024-01-06T08:41:46;96406.94;;;4.18
64458;BMP280;58438;51.200;7.252;2024-01-06T08:44:33;96414.25;;;4.17
64458;BMP280;58438;51.200;7.252;2024-01-06T08:47:20;96418.91;;;4.17
64458;BMP280;58438;51.200;7.252;2024-01-06T08:50:09;96425.03;;;4.17
64458;BMP280;58438;51.200;7.252;2024-01-06T08:52:56;96428.94;;;4.16
64458;BMP280;58438;51.200;7.252;2024-01-06T08:55:43;96432.38;;;4.17
64458;BMP280;58438;51.200;7.252;2024-01-06T08:58:32;96438.50;;;4.17
64458;BMP280;58438;51.200;7.252;2024-01-06T09:01:19;96440.47;;;4.17
64458;BMP280;58438;51.200;7.252;2024-01-06T09:04:07;96445.84;;;4.17
64458;BMP280;58438;51.200;7.252;2024-01-06T09:06:58;96447.06;;;4.16
64458;BMP280;58438;51.200;7.252;2024-01-06T09:09:45;96450.91;;;4.15
64458;BMP280;58438;51.200;7.252;2024-01-06T09:12:33;96453.59;;;4.15
64458;BMP280;58438;51.200;7.252;2024-01-06T09:15:20;96456.31;;;4.15
64458;BMP280;58438;51.200;7.252;2024-01-06T09:18:07;96460.97;;;4.14
64458;BMP280;58438;51.200;7.252;2024-01-06T09:20:54;96462.16;;;4.13
64458;BMP280;58438;51.200;7.252;2024-01-06T09:23:43;96465.31;;;4.12
64458;BMP280;58438;51.200;7.252;2024-01-06T09:26:31;96469.19;;;4.11
64458;BMP280;58438;51.200;7.252;2024-01-06T09:29:18;96470.41;;;4.10
64458;BMP280;58438;51.200;7.252;2024-01-06T09:32:05;96473.56;;;4.08
64458;BMP280;58438;51.200;7.252;2024-01-06T09:34:52;96476.72;;;4.07
64458;BMP280;58438;51.200;7.252;2024-01-06T09:37:40;96480.59;;;4.06
64458;BMP280;58438;51.200;7.252;2024-01-06T09:40:28;96481.06;;;4.04
64458;BMP280;58438;51.200;7.252;2024-01-06T09:43:18;96486.91;;;4.03
64458;BMP280;58438;51.200;7.252;2024-01-06T09:46:06;96489.31;;;4.01
64458;BMP280;58438;51.200;7.252;2024-01-06T09:48:53;96492.47;;;3.99
64458;BMP280;58438;51.200;7.252;2024-01-06T09:51:41;96495.59;;;3.98
64458;BMP280;58438;51.200;7.252;2024-01-06T09:54:29;96500.69;;;3.96
64458;BMP280;58438;51.200;7.252;2024-01-06T09:57:21;96500.41;;;3.94
64458;BMP280;58438;51.200;7.252;2024-01-06T10:00:08;96503.53;;;3.92
64458;BMP280;58438;51.200;7.252;2024-01-06T10:02:56;96507.88;;;3.90
64458;BMP280;58438;51.200;7.252;2024-01-06T10:05:43;96507.63;;;3.88
64458;BMP280;58438;51.200;7.252;2024-01-06T10:08:31;96510.03;;;3.86
64458;BMP280;58438;51.200;7.252;2024-01-06T10:11:21;96511.97;;;3.85
64458;BMP280;58438;51.200;7.252;2024-01-06T10:14:10;96511.19;;;3.85
64458;BMP280;58438;51.200;7.252;2024-01-06T10:16:58;96511.97;;;3.85
64458;BMP280;58438;51.200;7.252;2024-01-06T10:19:45;96512.72;;;3.86
64458;BMP280;58438;51.200;7.252;2024-01-06T10:22:34;96512.41;;;3.84
64458;BMP280;58438;51.200;7.252;2024-01-06T10:25:22;96514.38;;;3.83
64458;BMP280;58438;51.200;7.252;2024-01-06T10:28:11;96513.59;;;3.83
64458;BMP280;58438;51.200;7.252;2024-01-06T10:30:59;96517.06;;;3.83
64458;BMP280;58438;51.200;7.252;2024-01-06T10:33:47;96519.00;;;3.83
64458;BMP280;58438;51.200;7.252;2024-01-06T10:36:35;96521.69;;;3.83
64458;BMP280;58438;51.200;7.252;2024-01-06T10:39:23;96523.63;;;3.82
64458;BMP280;58438;51.200;7.252;2024-01-06T10:42:10;96525.56;;;3.82
64458;BMP280;58438;51.200;7.252;2024-01-06T10:44:59;96528.25;;;3.82
64458;BMP280;58438;51.200;7.252;2024-01-06T10:47:48;96531.41;;;3.80
64458;BMP280;58438;51.200;7.252;2024-01-06T10:50:35;96531.88;;;3.79
64458;BMP280;58438;51.200;7.252;2024-01-06T10:53:23;96533.06;;;3.78
64458;BMP280;58438;51.200;7.252;2024-01-06T10:56:13;96535.44;;;3.76
64458;BMP280;58438;51.200;7.252;2024-01-06T10:59:00;96537.41;;;3.75
64458;BMP280;58438;51.200;7.252;2024-01-06T11:01:47;96536.66;;;3.75
64458;BMP280;58438;51.200;7.252;2024-01-06T11:04:37;96537.84;;;3.74
64458;BMP280;58438;51.200;7.252;2024-01-06T11:07:24;96539.06;;;3.73
64458;BMP280;58438;51.200;7.252;2024-01-06T11:10:15;96539.50;;;3.71
64458;BMP280;58438;51.200;7.252;2024-01-06T11:13:10;96539.94;;;3.70
64458;BMP280;58438;51.200;7.252;2024-01-06T11:15:58;96537.72;;;3.68
64458;BMP280;58438;51.200;7.252;2024-01-06T11:18:45;96537.72;;;3.68
64458;BMP280;58438;51.200;7.252;2024-01-06T11:21:35;96537.72;;;3.68
64458;BMP280;58438;51.200;7.252;2024-01-06T11:24:22;96538.91;;;3.67
64458;BMP280;58438;51.200;7.252;2024-01-06T11:27:16;96539.38;;;3.66
64458;BMP280;58438;51.200;7.252;2024-01-06T11:30:04;96537.91;;;3.65
64458;BMP280;58438;51.200;7.252;2024-01-06T11:32:53;96541.31;;;3.65
64458;BMP280;58438;51.200;7.252;2024-01-06T11:35:40;96540.59;;;3.65
64458;BMP280;58438;51.200;7.252;2024-01-06T11:38:38;96541.03;;;3.63
64458;BMP280;58438;51.200;7.252;2024-01-06T11:44:28;96544.16;;;3.62
64458;BMP280;58438;51.200;7.252;2024-01-06T11:47:15;96543.44;;;3.61
64458;BMP280;58438;51.200;7.252;2024-01-06T11:50:09;96548.06;;;3.61
64458;BMP280;58438;51.200;7.252;2024-01-06T11:52:56;96548.81;;;3.61
64458;BMP280;58438;51.200;7.252;2024-01-06T11:55:47;96548.81;;;3.61
64458;BMP280;58438;51.200;7.252;2024-01-06T11:58:35;96549.53;;;3.62
64458;BMP280;58438;51.200;7.252;2024-01-06T12:01:22;96551.50;;;3.61
64458;BMP280;58438;51.200;7.252;2024-01-06T12:04:10;96552.69;;;3.60
64458;BMP280;58438;51.200;7.252;2024-01-06T12:07:06;96554.63;;;3.60
64458;BMP280;58438;51.200;7.252;2024-01-06T12:10:00;96554.63;;;3.60
64458;BMP280;58438;51.200;7.252;2024-01-06T12:12:57;96556.88;;;3.61
64458;BMP280;58438;51.200;7.252;2024-01-06T12:15:45;96557.63;;;3.62
64458;BMP280;58438;51.200;7.252;2024-01-06T12:18:33;96556.88;;;3.61
64458;BMP280;58438;51.200;7.252;2024-01-06T12:21:21;96557.63;;;3.62
64458;BMP280;58438;51.200;7.252;2024-01-06T12:24:17;96559.56;;;3.61
64458;BMP280;58438;51.200;7.252;2024-01-06T12:27:06;96558.81;;;3.61
64458;BMP280;58438;51.200;7.252;2024-01-06T12:29:56;96560.78;;;3.60
64458;BMP280;58438;51.200;7.252;2024-01-06T12:32:43;96561.97;;;3.59
64458;BMP280;58438;51.200;7.252;2024-01-06T12:35:31;96562.69;;;3.60
64458;BMP280;58438;51.200;7.252;2024-01-06T12:38:19;96561.97;;;3.59
64458;BMP280;58438;51.200;7.252;2024-01-06T12:41:07;96563.47;;;3.60
64458;BMP280;58438;51.200;7.252;2024-01-06T12:43:54;96563.91;;;3.59
64458;BMP280;58438;51.200;7.252;2024-01-06T12:46:42;96567.03;;;3.57
64458;BMP280;58438;51.200;7.252;2024-01-06T12:49:30;96567.03;;;3.57
64458;BMP280;58438;51.200;7.252;2024-01-06T12:52:18;96569.72;;;3.57
64458;BMP280;58438;51.200;7.252;2024-01-06T12:55:05;96573.63;;;3.56
64458;BMP280;58438;51.200;7.252;2024-01-06T12:57:53;96576.78;;;3.55
64458;BMP280;58438;51.200;7.252;2024-01-06T13:00:41;96577.22;;;3.53
64458;BMP280;58438;51.200;7.252;2024-01-06T13:03:30;96579.16;;;3.53
64458;BMP280;58438;51.200;7.252;2024-01-06T13:06:18;96579.63;;;3.51
64458;BMP280;58438;51.200;7.252;2024-01-06T13:09:05;96582.31;;;3.51
64458;BMP280;58438;51.200;7.252;2024-01-06T13:11:54;96583.47;;;3.50
64458;BMP280;58438;51.200;7.252;2024-01-06T13:14:46;96584.66;;;3.49
64458;BMP280;58438;51.200;7.252;2024-01-06T13:17:34;96586.31;;;3.47
64458;BMP280;58438;51.200;7.252;2024-01-06T13:20:23;96587.97;;;3.44
64458;BMP280;58438;51.200;7.252;2024-01-06T13:23:10;96586.94;;;3.42
64458;BMP280;58438;51.200;7.252;2024-01-06T13:25:58;96587.38;;;3.40
64458;BMP280;58438;51.200;7.252;2024-01-06T13:28:45;96589.78;;;3.38
64458;BMP280;58438;51.200;7.252;2024-01-06T13:31:32;96591.00;;;3.37
64458;BMP280;58438;51.200;7.252;2024-01-06T13:34:20;96591.00;;;3.37
64458;BMP280;58438;51.200;7.252;2024-01-06T13:37:09;96592.91;;;3.37
64458;BMP280;58438;51.200;7.252;2024-01-06T13:39:56;96594.88;;;3.36
64458;BMP280;58438;51.200;7.252;2024-01-06T13:42:43;96599.50;;;3.36
64458;BMP280;58438;51.200;7.252;2024-01-06T13:45:31;96601.41;;;3.35
64458;BMP280;58438;51.200;7.252;2024-01-06T13:48:19;96604.13;;;3.35
64458;BMP280;58438;51.200;7.252;2024-01-06T13:51:07;96607.72;;;3.32
64458;BMP280;58438;51.200;7.252;2024-01-06T13:53:55;96610.41;;;3.32
64458;BMP280;58438;51.200;7.252;2024-01-06T13:56:43;96615.91;;;3.29
64458;BMP280;58438;51.200;7.252;2024-01-06T13:59:30;96620.25;;;3.26
64458;BMP280;58438;51.200;7.252;2024-01-06T14:02:17;96623.97;;;3.20
64458;BMP280;58438;51.200;7.252;2024-01-06T14:05:04;96627.72;;;3.13
64458;BMP280;58438;51.200;7.252;2024-01-06T14:07:54;96631.00;;;3.08
64458;BMP280;58438;51.200;7.252;2024-01-06T14:10:42;96633.81;;;3.05
64458;BMP280;58438;51.200;7.252;2024-01-06T14:13:30;96634.72;;;3.02
64458;BMP280;58438;51.200;7.252;2024-01-06T14:16:19;96638.28;;;2.99
64458;BMP280;58438;51.200;7.252;2024-01-06T14:19:06;96642.16;;;2.98
64458;BMP280;58438;51.200;7.252;2024-01-06T14:21:54;96642.31;;;2.94
64458;BMP280;58438;51.200;7.252;2024-01-06T14:24:41;96644.25;;;2.94
64458;BMP280;58438;51.200;7.252;2024-01-06T14:27:29;96646.94;;;2.94
64458;BMP280;58438;51.200;7.252;2024-01-06T14:30:16;96650.38;;;2.94
64458;BMP280;58438;51.200;7.252;2024-01-06T14:33:06;96653.81;;;2.95
64458;BMP280;58438;51.200;7.252;2024-01-06T14:35:53;96657.22;;;2.95
64458;BMP280;58438;51.200;7.252;2024-01-06T14:38:40;96662.16;;;2.97
64458;BMP280;58438;51.200;7.252;2024-01-06T14:41:28;96667.56;;;2.97
64458;BMP280;58438;51.200;7.252;2024-01-06T14:44:16;96672.16;;;2.96
64458;BMP280;58438;51.200;7.252;2024-01-06T14:47:05;96678.31;;;2.97
64458;BMP280;58438;51.200;7.252;2024-01-06T14:49:53;96681.00;;;2.97
64458;BMP280;58438;51.200;7.252;2024-01-06T14:52:40;96685.16;;;2.98
64458;BMP280;58438;51.200;7.252;2024-01-06T14:55:27;96689.78;;;2.97
64458;BMP280;58438;51.200;7.252;2024-01-06T14:58:14;96695.31;;;2.94
64458;BMP280;58438;51.200;7.252;2024-01-06T15:01:03;96698.88;;;2.91
64458;BMP280;58438;51.200;7.252;2024-01-06T15:03:51;96700.53;;;2.88
64458;BMP280;58438;51.200;7.252;2024-01-06T15:06:39;96705.16;;;2.88
64458;BMP280;58438;51.200;7.252;2024-01-06T15:09:26;96708.28;;;2.87
64458;BMP280;58438;51.200;7.252;2024-01-06T15:12:14;96711.41;;;2.85
64458;BMP280;58438;51.200;7.252;2024-01-06T15:15:01;96714.56;;;2.84
64458;BMP280;58438;51.200;7.252;2024-01-06T15:17:49;96719.59;;;2.82
64458;BMP280;58438;51.200;7.252;2024-01-06T15:20:36;96722.00;;;2.80
64458;BMP280;58438;51.200;7.252;2024-01-06T15:23:23;96723.19;;;2.79
64458;BMP280;58438;51.200;7.252;2024-01-06T15:26:11;96725.56;;;2.77
64458;BMP280;58438;51.200;7.252;2024-01-06T15:28:59;96730.19;;;2.76
64458;BMP280;58438;51.200;7.252;2024-01-06T15:31:46;96734.38;;;2.77
64458;BMP280;58438;51.200;7.252;2024-01-06T15:34:35;96739.31;;;2.79
64458;BMP280;58438;51.200;7.252;2024-01-06T15:37:22;96742.75;;;2.79
64458;BMP280;58438;51.200;7.252;2024-01-06T15:40:11;96748.13;;;2.79
64458;BMP280;58438;51.200;7.252;2024-01-06T15:42:58;96750.06;;;2.79
64458;BMP280;58438;51.200;7.252;2024-01-06T15:45:45;96754.66;;;2.78
64458;BMP280;58438;51.200;7.252;2024-01-06T15:48:32;96761.22;;;2.77
64458;BMP280;58438;51.200;7.252;2024-01-06T15:51:20;96765.53;;;2.75
64458;BMP280;58438;51.200;7.252;2024-01-06T15:54:09;96769.13;;;2.72
64458;BMP280;58438;51.200;7.252;2024-01-06T15:56:56;96772.69;;;2.69
64458;BMP280;58438;51.200;7.252;2024-01-06T15:59:44;96773.88;;;2.68
64458;BMP280;58438;51.200;7.252;2024-01-06T16:02:31;96777.00;;;2.66
64458;BMP280;58438;51.200;7.252;2024-01-06T16:05:19;96781.59;;;2.66
64458;BMP280;58438;51.200;7.252;2024-01-06T16:08:08;96784.28;;;2.66
64458;BMP280;58438;51.200;7.252;2024-01-06T16:10:55;96786.69;;;2.64
64458;BMP280;58438;51.200;7.252;2024-01-06T16:13:42;96790.72;;;2.59
64458;BMP280;58438;51.200;7.252;2024-01-06T16:16:29;96793.53;;;2.56
64458;BMP280;58438;51.200;7.252;2024-01-06T16:19:16;96794.41;;;2.53
64458;BMP280;58438;51.200;7.252;2024-01-06T16:22:04;96798.72;;;2.50
64458;BMP280;58438;51.200;7.252;2024-01-06T16:25:00;96800.00;;;2.46